sensor_id;sensor_type;location;lat;lon;timestamp;temperature;humidity
1958;DHT22;979;51.076;13.748;2023-04-25T00:01:19;12.30;58.30
1958;DHT22;979;51.076;13.748;2023-04-25T00:03:48;12.30;58.10
1958;DHT22;979;51.076;13.748;2023-04-25T00:06:18;12.30;58.20
1958;DHT22;979;51.076;13.748;2023-04-25T00:08:47;12.40;58.30
1958;DHT22;979;51.076;13.748;2023-04-25T00:11:16;12.40;58.20
1958;DHT22;979;51.076;13.748;2023-04-25T00:13:46;12.40;58.40
1958;DHT22;979;51.076;13.748;2023-04-25T00:16:17;12.40;58.40
1958;DHT22;979;51.076;13.748;2023-04-25T00:18:45;12.40;58.60
1958;DHT22;979;51.076;13.748;2023-04-25T00:21:18;12.30;58.70
1958;DHT22;979;51.076;13.748;2023-04-25T00:23:47;12.30;58.80
1958;DHT22;979;51.076;13.748;2023-04-25T00:26:19;12.30;59.10
1958;DHT22;979;51.076;13.748;2023-04-25T00:28:50;12.30;59.10
1958;DHT22;979;51.076;13.748;2023-04-25T00:31:19;12.20;59.30
1958;DHT22;979;51.076;13.748;2023-04-25T00:33:47;12.20;59.50
1958;DHT22;979;51.076;13.748;2023-04-25T00:36:16;12.20;59.60
1958;DHT22;979;51.076;13.748;2023-04-25T00:38:45;12.10;59.70
1958;DHT22;979;51.076;13.748;2023-04-25T00:41:14;12.10;59.80
1958;DHT22;979;51.076;13.748;2023-04-25T00:43:44;12.10;59.90
1958;DHT22;979;51.076;13.748;2023-04-25T00:46:14;12.00;59.80
1958;DHT22;979;51.076;13.748;2023-04-25T00:48:43;12.00;60.30
1958;DHT22;979;51.076;13.748;2023-04-25T00:51:16;11.90;60.20
1958;DHT22;979;51.076;13.748;2023-04-25T00:53:45;11.90;60.20
1958;DHT22;979;51.076;13.748;2023-04-25T00:56:14;11.90;60.10
1958;DHT22;979;51.076;13.748;2023-04-25T00:58:42;11.80;60.20
1958;DHT22;979;51.076;13.748;2023-04-25T01:01:11;11.80;60.50
1958;DHT22;979;51.076;13.748;2023-04-25T01:03:42;11.70;60.20
1958;DHT22;979;51.076;13.748;2023-04-25T01:06:12;11.60;60.30
1958;DHT22;979;51.076;13.748;2023-04-25T01:08:42;11.60;60.50
1958;DHT22;979;51.076;13.748;2023-04-25T01:11:11;11.50;60.60
1958;DHT22;979;51.076;13.748;2023-04-25T01:13:40;11.50;60.50
1958;DHT22;979;51.076;13.748;2023-04-25T01:16:09;11.30;60.50
1958;DHT22;979;51.076;13.748;2023-04-25T01:18:39;11.30;60.60
1958;DHT22;979;51.076;13.748;2023-04-25T01:21:10;11.30;60.40
1958;DHT22;979;51.076;13.748;2023-04-25T01:23:41;11.20;60.40
1958;DHT22;979;51.076;13.748;2023-04-25T01:26:11;11.20;60.60
1958;DHT22;979;51.076;13.748;2023-04-25T01:28:40;11.10;60.50
1958;DHT22;979;51.076;13.748;2023-04-25T01:31:11;11.10;60.60
1958;DHT22;979;51.076;13.748;2023-04-25T01:33:40;11.00;60.60
1958;DHT22;979;51.076;13.748;2023-04-25T01:36:10;11.00;60.60
1958;DHT22;979;51.076;13.748;2023-04-25T01:38:39;11.00;60.60
1958;DHT22;979;51.076;13.748;2023-04-25T01:41:08;11.00;60.70
1958;DHT22;979;51.076;13.748;2023-04-25T01:43:36;10.90;60.70
1958;DHT22;979;51.076;13.748;2023-04-25T01:46:05;10.80;60.70
1958;DHT22;979;51.076;13.748;2023-04-25T01:48:33;10.80;60.80
1958;DHT22;979;51.076;13.748;2023-04-25T01:51:02;10.70;60.70
1958;DHT22;979;51.076;13.748;2023-04-25T01:53:32;10.70;60.60
1958;DHT22;979;51.076;13.748;2023-04-25T01:56:02;10.70;60.70
1958;DHT22;979;51.076;13.748;2023-04-25T01:58:33;10.70;60.70
1958;DHT22;979;51.076;13.748;2023-04-25T02:01:07;10.70;60.70
1958;DHT22;979;51.076;13.748;2023-04-25T02:03:43;10.60;60.60
1958;DHT22;979;51.076;13.748;2023-04-25T02:06:30;10.60;60.50
1958;DHT22;979;51.076;13.748;2023-04-25T02:09:00;10.60;60.50
1958;DHT22;979;51.076;13.748;2023-04-25T02:11:29;10.50;60.70
1958;DHT22;979;51.076;13.748;2023-04-25T02:14:18;10.50;60.70
1958;DHT22;979;51.076;13.748;2023-04-25T02:17:07;10.40;60.70
1958;DHT22;979;51.076;13.748;2023-04-25T02:19:36;10.40;60.80
1958;DHT22;979;51.076;13.748;2023-04-25T02:22:04;10.30;60.70
1958;DHT22;979;51.076;13.748;2023-04-25T02:24:34;10.30;60.80
1958;DHT22;979;51.076;13.748;2023-04-25T02:27:03;10.30;60.80
1958;DHT22;979;51.076;13.748;2023-04-25T02:29:31;10.30;60.70
1958;DHT22;979;51.076;13.748;2023-04-25T02:32:00;10.10;60.70
1958;DHT22;979;51.076;13.748;2023-04-25T02:34:28;10.20;60.90
1958;DHT22;979;51.076;13.748;2023-04-25T02:37:00;10.30;61.00
1958;DHT22;979;51.076;13.748;2023-04-25T02:39:29;10.10;60.90
1958;DHT22;979;51.076;13.748;2023-04-25T02:41:59;10.00;61.00
1958;DHT22;979;51.076;13.748;2023-04-25T02:44:29;10.00;61.10
1958;DHT22;979;51.076;13.748;2023-04-25T02:46:57;10.00;61.10
1958;DHT22;979;51.076;13.748;2023-04-25T02:49:26;9.90;62.10
1958;DHT22;979;51.076;13.748;2023-04-25T02:51:54;9.90;62.10
1958;DHT22;979;51.076;13.748;2023-04-25T02:54:23;9.90;62.10
1958;DHT22;979;51.076;13.748;2023-04-25T02:56:51;9.90;62.10
1958;DHT22;979;51.076;13.748;2023-04-25T02:59:27;9.90;62.20
1958;DHT22;979;51.076;13.748;2023-04-25T03:01:55;9.90;62.20
1958;DHT22;979;51.076;13.748;2023-04-25T03:04:24;9.80;62.00
1958;DHT22;979;51.076;13.748;2023-04-25T03:06:53;9.90;62.10
1958;DHT22;979;51.076;13.748;2023-04-25T03:09:22;9.80;61.90
1958;DHT22;979;51.076;13.748;2023-04-25T03:11:51;9.80;62.10
1958;DHT22;979;51.076;13.748;2023-04-25T03:14:20;9.60;62.00
1958;DHT22;979;51.076;13.748;2023-04-25T03:16:50;9.80;62.30
1958;DHT22;979;51.076;13.748;2023-04-25T03:19:18;9.70;62.20
1958;DHT22;979;51.076;13.748;2023-04-25T03:21:47;9.70;62.30
1958;DHT22;979;51.076;13.748;2023-04-25T03:24:17;9.60;62.10
1958;DHT22;979;51.076;13.748;2023-04-25T03:26:45;9.80;62.50
1958;DHT22;979;51.076;13.748;2023-04-25T03:29:13;9.60;62.40
1958;DHT22;979;51.076;13.748;2023-04-25T03:31:43;9.60;62.40
1958;DHT22;979;51.076;13.748;2023-04-25T03:34:15;9.50;62.40
1958;DHT22;979;51.076;13.748;2023-04-25T03:36:44;9.50;62.40
1958;DHT22;979;51.076;13.748;2023-04-25T03:39:13;9.50;62.40
1958;DHT22;979;51.076;13.748;2023-04-25T03:41:46;9.50;63.30
1958;DHT22;979;51.076;13.748;2023-04-25T03:44:17;9.50;62.60
1958;DHT22;979;51.076;13.748;2023-04-25T03:46:46;9.50;62.80
1958;DHT22;979;51.076;13.748;2023-04-25T03:49:19;9.50;62.70
1958;DHT22;979;51.076;13.748;2023-04-25T03:52:06;9.50;62.40
1958;DHT22;979;51.076;13.748;2023-04-25T03:54:38;9.50;62.70
1958;DHT22;979;51.076;13.748;2023-04-25T03:57:16;9.40;62.70
1958;DHT22;979;51.076;13.748;2023-04-25T03:59:45;9.40;62.80
1958;DHT22;979;51.076;13.748;2023-04-25T04:02:23;9.40;62.90
1958;DHT22;979;51.076;13.748;2023-04-25T04:06:08;9.40;62.90
1958;DHT22;979;51.076;13.748;2023-04-25T04:08:58;9.40;62.70
1958;DHT22;979;51.076;13.748;2023-04-25T04:12:08;9.30;62.60
1958;DHT22;979;51.076;13.748;2023-04-25T04:18:31;9.30;62.50
1958;DHT22;979;51.076;13.748;2023-04-25T04:25:39;9.30;62.50
1958;DHT22;979;51.076;13.748;2023-04-25T04:28:52;9.50;62.90
1958;DHT22;979;51.076;13.748;2023-04-25T04:32:06;9.50;62.70
1958;DHT22;979;51.076;13.748;2023-04-25T04:35:06;9.50;62.50
1958;DHT22;979;51.076;13.748;2023-04-25T04:37:58;9.50;62.50
1958;DHT22;979;51.076;13.748;2023-04-25T04:40:35;9.60;62.80
1958;DHT22;979;51.076;13.748;2023-04-25T04:43:31;9.50;62.80
1958;DHT22;979;51.076;13.748;2023-04-25T04:46:22;9.30;62.60
1958;DHT22;979;51.076;13.748;2023-04-25T04:49:42;9.50;63.00
1958;DHT22;979;51.076;13.748;2023-04-25T04:52:43;9.70;62.90
1958;DHT22;979;51.076;13.748;2023-04-25T04:55:56;9.60;63.20
1958;DHT22;979;51.076;13.748;2023-04-25T04:59:22;9.80;63.10
1958;DHT22;979;51.076;13.748;2023-04-25T05:02:39;9.80;62.90
1958;DHT22;979;51.076;13.748;2023-04-25T05:06:18;9.70;63.20
1958;DHT22;979;51.076;13.748;2023-04-25T05:13:13;9.90;62.90
1958;DHT22;979;51.076;13.748;2023-04-25T05:16:34;10.00;61.90
1958;DHT22;979;51.076;13.748;2023-04-25T05:19:36;10.10;62.10
1958;DHT22;979;51.076;13.748;2023-04-25T05:22:44;10.10;62.00
1958;DHT22;979;51.076;13.748;2023-04-25T05:26:03;10.30;61.80
1958;DHT22;979;51.076;13.748;2023-04-25T05:29:13;10.20;61.80
1958;DHT22;979;51.076;13.748;2023-04-25T05:32:16;10.30;62.20
1958;DHT22;979;51.076;13.748;2023-04-25T05:35:29;10.30;62.00
1958;DHT22;979;51.076;13.748;2023-04-25T05:38:39;10.20;61.90
1958;DHT22;979;51.076;13.748;2023-04-25T05:42:18;10.50;62.00
1958;DHT22;979;51.076;13.748;2023-04-25T05:45:35;10.30;61.20
1958;DHT22;979;51.076;13.748;2023-04-25T05:48:47;10.50;61.30
1958;DHT22;979;51.076;13.748;2023-04-25T05:52:16;10.60;61.40
1958;DHT22;979;51.076;13.748;2023-04-25T05:55:50;10.40;60.80
1958;DHT22;979;51.076;13.748;2023-04-25T05:58:58;10.50;60.90
1958;DHT22;979;51.076;13.748;2023-04-25T06:02:27;10.50;60.60
1958;DHT22;979;51.076;13.748;2023-04-25T06:05:35;10.60;60.80
1958;DHT22;979;51.076;13.748;2023-04-25T06:08:55;10.60;60.80
1958;DHT22;979;51.076;13.748;2023-04-25T06:12:05;10.60;60.70
1958;DHT22;979;51.076;13.748;2023-04-25T06:14:57;10.50;60.30
1958;DHT22;979;51.076;13.748;2023-04-25T06:18:17;10.70;60.50
1958;DHT22;979;51.076;13.748;2023-04-25T06:21:04;10.70;59.90
1958;DHT22;979;51.076;13.748;2023-04-25T06:24:09;10.80;59.90
1958;DHT22;979;51.076;13.748;2023-04-25T06:27:28;10.80;60.10
1958;DHT22;979;51.076;13.748;2023-04-25T06:33:40;11.00;59.70
1958;DHT22;979;51.076;13.748;2023-04-25T06:36:29;11.00;59.60
1958;DHT22;979;51.076;13.748;2023-04-25T06:39:17;11.10;59.50
1958;DHT22;979;51.076;13.748;2023-04-25T06:45:39;11.10;59.20
1958;DHT22;979;51.076;13.748;2023-04-25T06:48:56;11.30;59.40
1958;DHT22;979;51.076;13.748;2023-04-25T06:51:51;11.20;58.80
1958;DHT22;979;51.076;13.748;2023-04-25T06:55:05;11.40;59.10
1958;DHT22;979;51.076;13.748;2023-04-25T06:58:14;11.50;59.00
1958;DHT22;979;51.076;13.748;2023-04-25T07:01:42;11.60;59.00
1958;DHT22;979;51.076;13.748;2023-04-25T07:04:47;11.50;58.90
1958;DHT22;979;51.076;13.748;2023-04-25T07:07:30;11.80;58.60
1958;DHT22;979;51.076;13.748;2023-04-25T07:10:13;11.80;58.50
1958;DHT22;979;51.076;13.748;2023-04-25T07:12:46;11.80;58.30
1958;DHT22;979;51.076;13.748;2023-04-25T07:15:15;11.90;58.20
1958;DHT22;979;51.076;13.748;2023-04-25T07:17:47;12.00;58.10
1958;DHT22;979;51.076;13.748;2023-04-25T07:20:19;11.90;57.70
1958;DHT22;979;51.076;13.748;2023-04-25T07:22:55;12.00;57.70
1958;DHT22;979;51.076;13.748;2023-04-25T07:25:37;12.10;57.80
1958;DHT22;979;51.076;13.748;2023-04-25T07:28:16;12.30;57.70
1958;DHT22;979;51.076;13.748;2023-04-25T07:31:01;12.50;57.70
1958;DHT22;979;51.076;13.748;2023-04-25T07:34:09;12.90;57.40
1958;DHT22;979;51.076;13.748;2023-04-25T07:36:55;12.80;56.50
1958;DHT22;979;51.076;13.748;2023-04-25T07:40:20;12.80;56.50
1958;DHT22;979;51.076;13.748;2023-04-25T07:43:34;12.90;56.30
1958;DHT22;979;51.076;13.748;2023-04-25T07:46:35;12.70;56.00
1958;DHT22;979;51.076;13.748;2023-04-25T07:49:52;13.00;56.70
1958;DHT22;979;51.076;13.748;2023-04-25T07:53:03;13.10;56.20
1958;DHT22;979;51.076;13.748;2023-04-25T07:55:54;13.20;56.20
1958;DHT22;979;51.076;13.748;2023-04-25T07:58:43;13.30;55.80
1958;DHT22;979;51.076;13.748;2023-04-25T08:01:26;13.40;56.00
1958;DHT22;979;51.076;13.748;2023-04-25T08:04:04;13.50;55.80
1958;DHT22;979;51.076;13.748;2023-04-25T08:07:11;13.60;55.70
1958;DHT22;979;51.076;13.748;2023-04-25T08:10:10;13.80;55.50
1958;DHT22;979;51.076;13.748;2023-04-25T08:13:05;14.00;55.50
1958;DHT22;979;51.076;13.748;2023-04-25T08:15:58;14.00;55.40
1958;DHT22;979;51.076;13.748;2023-04-25T08:18:38;14.20;55.30
1958;DHT22;979;51.076;13.748;2023-04-25T08:21:38;14.30;55.00
1958;DHT22;979;51.076;13.748;2023-04-25T08:24:41;14.30;54.80
1958;DHT22;979;51.076;13.748;2023-04-25T08:27:30;14.20;54.80
1958;DHT22;979;51.076;13.748;2023-04-25T08:30:17;14.40;54.80
1958;DHT22;979;51.076;13.748;2023-04-25T08:33:10;14.50;54.60
1958;DHT22;979;51.076;13.748;2023-04-25T08:36:10;14.70;54.70
1958;DHT22;979;51.076;13.748;2023-04-25T08:39:00;14.80;54.50
1958;DHT22;979;51.076;13.748;2023-04-25T08:41:57;14.80;54.40
1958;DHT22;979;51.076;13.748;2023-04-25T08:45:19;15.00;54.10
1958;DHT22;979;51.076;13.748;2023-04-25T08:48:17;14.60;53.60
1958;DHT22;979;51.076;13.748;2023-04-25T08:51:46;14.50;54.00
1958;DHT22;979;51.076;13.748;2023-04-25T08:54:52;14.50;54.20
1958;DHT22;979;51.076;13.748;2023-04-25T08:58:23;14.40;54.30
1958;DHT22;979;51.076;13.748;2023-04-25T09:01:22;14.50;54.00
1958;DHT22;979;51.076;13.748;2023-04-25T09:04:17;14.50;53.50
1958;DHT22;979;51.076;13.748;2023-04-25T09:07:12;14.40;53.20
1958;DHT22;979;51.076;13.748;2023-04-25T09:10:06;14.40;53.40
1958;DHT22;979;51.076;13.748;2023-04-25T09:13:14;14.30;53.70
1958;DHT22;979;51.076;13.748;2023-04-25T09:16:17;14.50;53.90
1958;DHT22;979;51.076;13.748;2023-04-25T09:19:23;14.50;53.90
1958;DHT22;979;51.076;13.748;2023-04-25T09:22:54;14.60;53.90
1958;DHT22;979;51.076;13.748;2023-04-25T09:26:00;14.60;53.60
1958;DHT22;979;51.076;13.748;2023-04-25T09:29:07;14.60;53.70
1958;DHT22;979;51.076;13.748;2023-04-25T09:32:30;14.80;53.70
1958;DHT22;979;51.076;13.748;2023-04-25T09:35:46;14.70;53.60
1958;DHT22;979;51.076;13.748;2023-04-25T09:38:43;14.50;53.70
1958;DHT22;979;51.076;13.748;2023-04-25T09:41:37;14.30;54.10
1958;DHT22;979;51.076;13.748;2023-04-25T09:44:27;14.20;53.80
1958;DHT22;979;51.076;13.748;2023-04-25T09:47:16;14.10;53.70
1958;DHT22;979;51.076;13.748;2023-04-25T09:49:59;13.90;53.60
1958;DHT22;979;51.076;13.748;2023-04-25T09:53:17;13.70;53.50
1958;DHT22;979;51.076;13.748;2023-04-25T09:56:10;13.60;54.00
1958;DHT22;979;51.076;13.748;2023-04-25T09:58:40;13.60;54.20
1958;DHT22;979;51.076;13.748;2023-04-25T10:01:12;13.70;54.50
1958;DHT22;979;51.076;13.748;2023-04-25T10:03:58;13.80;54.60
1958;DHT22;979;51.076;13.748;2023-04-25T10:06:48;13.80;54.30
1958;DHT22;979;51.076;13.748;2023-04-25T10:09:35;13.90;54.20
1958;DHT22;979;51.076;13.748;2023-04-25T10:12:18;14.10;54.70
1958;DHT22;979;51.076;13.748;2023-04-25T10:14:55;14.40;54.80
1958;DHT22;979;51.076;13.748;2023-04-25T10:17:35;14.70;54.50
1958;DHT22;979;51.076;13.748;2023-04-25T10:20:43;14.90;54.20
1958;DHT22;979;51.076;13.748;2023-04-25T10:23:40;14.90;53.80
1958;DHT22;979;51.076;13.748;2023-04-25T10:26:27;14.80;53.50
1958;DHT22;979;51.076;13.748;2023-04-25T10:29:24;14.70;53.40
1958;DHT22;979;51.076;13.748;2023-04-25T10:32:04;14.60;53.70
1958;DHT22;979;51.076;13.748;2023-04-25T10:34:39;14.60;53.60
1958;DHT22;979;51.076;13.748;2023-04-25T10:40:13;14.70;53.90
1958;DHT22;979;51.076;13.748;2023-04-25T10:43:38;14.60;53.80
1958;DHT22;979;51.076;13.748;2023-04-25T10:46:33;14.90;54.00
1958;DHT22;979;51.076;13.748;2023-04-25T10:49:50;15.00;54.10
1958;DHT22;979;51.076;13.748;2023-04-25T10:52:34;15.00;54.00
1958;DHT22;979;51.076;13.748;2023-04-25T10:55:22;14.90;53.90
1958;DHT22;979;51.076;13.748;2023-04-25T10:58:10;14.80;53.70
1958;DHT22;979;51.076;13.748;2023-04-25T11:01:01;14.40;53.10
1958;DHT22;979;51.076;13.748;2023-04-25T11:04:11;14.20;53.80
1958;DHT22;979;51.076;13.748;2023-04-25T11:07:29;14.00;54.10
1958;DHT22;979;51.076;13.748;2023-04-25T11:10:56;13.70;54.30
1958;DHT22;979;51.076;13.748;2023-04-25T11:14:01;13.60;54.50
1958;DHT22;979;51.076;13.748;2023-04-25T11:16:55;13.50;54.60
1958;DHT22;979;51.076;13.748;2023-04-25T11:19:40;13.50;55.20
1958;DHT22;979;51.076;13.748;2023-04-25T11:22:26;13.20;55.00
1958;DHT22;979;51.076;13.748;2023-04-25T11:25:25;13.40;55.60
1958;DHT22;979;51.076;13.748;2023-04-25T11:28:34;13.10;55.90
1958;DHT22;979;51.076;13.748;2023-04-25T11:31:22;13.00;56.70
1958;DHT22;979;51.076;13.748;2023-04-25T11:34:04;13.30;57.00
1958;DHT22;979;51.076;13.748;2023-04-25T11:36:59;13.50;57.00
1958;DHT22;979;51.076;13.748;2023-04-25T11:40:04;13.80;57.10
1958;DHT22;979;51.076;13.748;2023-04-25T11:43:01;14.20;56.50
1958;DHT22;979;51.076;13.748;2023-04-25T11:45:40;14.20;55.10
1958;DHT22;979;51.076;13.748;2023-04-25T11:48:14;14.20;54.80
1958;DHT22;979;51.076;13.748;2023-04-25T11:50:44;14.30;54.70
1958;DHT22;979;51.076;13.748;2023-04-25T11:53:23;14.40;54.40
1958;DHT22;979;51.076;13.748;2023-04-25T11:55:55;14.50;54.50
1958;DHT22;979;51.076;13.748;2023-04-25T11:58:27;14.80;54.00
1958;DHT22;979;51.076;13.748;2023-04-25T12:00:59;14.70;53.50
1958;DHT22;979;51.076;13.748;2023-04-25T12:03:29;14.90;53.60
1958;DHT22;979;51.076;13.748;2023-04-25T12:06:02;14.90;53.40
1958;DHT22;979;51.076;13.748;2023-04-25T12:08:35;14.90;53.40
1958;DHT22;979;51.076;13.748;2023-04-25T12:11:04;14.90;53.40
1958;DHT22;979;51.076;13.748;2023-04-25T12:13:32;14.90;53.40
1958;DHT22;979;51.076;13.748;2023-04-25T12:16:00;15.00;53.50
1958;DHT22;979;51.076;13.748;2023-04-25T12:18:30;14.70;53.00
1958;DHT22;979;51.076;13.748;2023-04-25T12:20:59;14.60;53.00
1958;DHT22;979;51.076;13.748;2023-04-25T12:23:28;14.50;53.40
1958;DHT22;979;51.076;13.748;2023-04-25T12:25:57;14.40;53.40
1958;DHT22;979;51.076;13.748;2023-04-25T12:28:26;14.30;53.00
1958;DHT22;979;51.076;13.748;2023-04-25T12:31:01;14.30;52.90
1958;DHT22;979;51.076;13.748;2023-04-25T12:33:35;14.20;52.80
1958;DHT22;979;51.076;13.748;2023-04-25T12:36:07;14.20;52.70
1958;DHT22;979;51.076;13.748;2023-04-25T12:38:39;14.30;52.80
1958;DHT22;979;51.076;13.748;2023-04-25T12:41:13;14.30;52.80
1958;DHT22;979;51.076;13.748;2023-04-25T12:43:45;14.50;53.10
1958;DHT22;979;51.076;13.748;2023-04-25T12:46:19;14.90;53.00
1958;DHT22;979;51.076;13.748;2023-04-25T12:48:55;15.40;53.20
1958;DHT22;979;51.076;13.748;2023-04-25T12:51:43;15.70;51.90
1958;DHT22;979;51.076;13.748;2023-04-25T12:54:16;15.60;51.00
1958;DHT22;979;51.076;13.748;2023-04-25T12:56:56;15.60;50.80
1958;DHT22;979;51.076;13.748;2023-04-25T12:59:33;15.40;50.70
1958;DHT22;979;51.076;13.748;2023-04-25T13:02:11;15.20;50.70
1958;DHT22;979;51.076;13.748;2023-04-25T13:04:50;15.10;51.00
1958;DHT22;979;51.076;13.748;2023-04-25T13:07:19;15.00;50.80
1958;DHT22;979;51.076;13.748;2023-04-25T13:09:53;14.90;50.50
1958;DHT22;979;51.076;13.748;2023-04-25T13:12:34;14.70;50.50
1958;DHT22;979;51.076;13.748;2023-04-25T13:15:09;14.40;50.50
1958;DHT22;979;51.076;13.748;2023-04-25T13:17:50;14.20;50.40
1958;DHT22;979;51.076;13.748;2023-04-25T13:20:37;13.90;50.80
1958;DHT22;979;51.076;13.748;2023-04-25T13:23:22;13.60;51.10
1958;DHT22;979;51.076;13.748;2023-04-25T13:26:11;13.30;51.00
1958;DHT22;979;51.076;13.748;2023-04-25T13:29:06;13.10;51.30
1958;DHT22;979;51.076;13.748;2023-04-25T13:31:42;12.80;51.60
1958;DHT22;979;51.076;13.748;2023-04-25T13:34:23;12.70;52.20
1958;DHT22;979;51.076;13.748;2023-04-25T13:37:11;12.50;52.20
1958;DHT22;979;51.076;13.748;2023-04-25T13:39:39;12.50;52.50
1958;DHT22;979;51.076;13.748;2023-04-25T13:42:09;12.40;52.60
1958;DHT22;979;51.076;13.748;2023-04-25T13:44:40;12.30;52.50
1958;DHT22;979;51.076;13.748;2023-04-25T13:47:17;12.30;52.50
1958;DHT22;979;51.076;13.748;2023-04-25T13:49:49;12.30;52.30
1958;DHT22;979;51.076;13.748;2023-04-25T13:52:37;12.30;52.10
1958;DHT22;979;51.076;13.748;2023-04-25T13:55:06;12.20;51.80
1958;DHT22;979;51.076;13.748;2023-04-25T13:57:41;12.30;52.20
1958;DHT22;979;51.076;13.748;2023-04-25T14:00:20;12.30;52.20
1958;DHT22;979;51.076;13.748;2023-04-25T14:02:54;12.30;52.30
1958;DHT22;979;51.076;13.748;2023-04-25T14:05:40;12.30;52.40
1958;DHT22;979;51.076;13.748;2023-04-25T14:08:24;12.40;52.40
1958;DHT22;979;51.076;13.748;2023-04-25T14:11:13;12.40;52.30
1958;DHT22;979;51.076;13.748;2023-04-25T14:13:49;12.50;52.30
1958;DHT22;979;51.076;13.748;2023-04-25T14:16:25;12.40;52.20
1958;DHT22;979;51.076;13.748;2023-04-25T14:18:54;12.80;52.20
1958;DHT22;979;51.076;13.748;2023-04-25T14:21:29;12.80;53.00
1958;DHT22;979;51.076;13.748;2023-04-25T14:24:03;12.90;52.20
1958;DHT22;979;51.076;13.748;2023-04-25T14:26:40;13.10;52.30
1958;DHT22;979;51.076;13.748;2023-04-25T14:29:16;13.50;52.60
1958;DHT22;979;51.076;13.748;2023-04-25T14:31:51;14.10;52.80
1958;DHT22;979;51.076;13.748;2023-04-25T14:34:31;14.50;51.70
1958;DHT22;979;51.076;13.748;2023-04-25T14:40:45;14.50;50.40
1958;DHT22;979;51.076;13.748;2023-04-25T14:43:18;15.30;52.00
1958;DHT22;979;51.076;13.748;2023-04-25T14:45:55;16.70;52.10
1958;DHT22;979;51.076;13.748;2023-04-25T14:48:37;18.00;51.10
1958;DHT22;979;51.076;13.748;2023-04-25T14:51:14;18.40;48.80
1958;DHT22;979;51.076;13.748;2023-04-25T14:53:44;18.10;47.80
1958;DHT22;979;51.076;13.748;2023-04-25T14:56:22;17.70;47.40
1958;DHT22;979;51.076;13.748;2023-04-25T14:58:53;17.10;47.20
1958;DHT22;979;51.076;13.748;2023-04-25T15:01:29;16.80;47.60
1958;DHT22;979;51.076;13.748;2023-04-25T15:04:09;16.50;47.60
1958;DHT22;979;51.076;13.748;2023-04-25T15:06:46;16.40;47.40
1958;DHT22;979;51.076;13.748;2023-04-25T15:09:33;16.00;46.90
1958;DHT22;979;51.076;13.748;2023-04-25T15:12:14;15.80;46.40
1958;DHT22;979;51.076;13.748;2023-04-25T15:14:48;15.50;46.10
1958;DHT22;979;51.076;13.748;2023-04-25T15:20:53;14.90;45.90
1958;DHT22;979;51.076;13.748;2023-04-25T15:23:31;14.60;46.70
1958;DHT22;979;51.076;13.748;2023-04-25T15:26:26;14.40;46.30
1958;DHT22;979;51.076;13.748;2023-04-25T15:29:04;14.30;46.40
1958;DHT22;979;51.076;13.748;2023-04-25T15:31:44;14.10;46.40
1958;DHT22;979;51.076;13.748;2023-04-25T15:34:17;13.90;46.40
1958;DHT22;979;51.076;13.748;2023-04-25T15:36:49;13.80;46.50
1958;DHT22;979;51.076;13.748;2023-04-25T15:39:31;13.50;46.60
1958;DHT22;979;51.076;13.748;2023-04-25T15:42:13;13.50;46.70
1958;DHT22;979;51.076;13.748;2023-04-25T15:44:49;13.50;46.60
1958;DHT22;979;51.076;13.748;2023-04-25T15:47:23;13.30;46.50
1958;DHT22;979;51.076;13.748;2023-04-25T15:50:00;13.20;46.90
1958;DHT22;979;51.076;13.748;2023-04-25T15:52:41;13.10;46.60
1958;DHT22;979;51.076;13.748;2023-04-25T16:02:41;12.80;46.90
1958;DHT22;979;51.076;13.748;2023-04-25T16:05:25;12.80;47.40
1958;DHT22;979;51.076;13.748;2023-04-25T16:08:04;13.00;47.80
1958;DHT22;979;51.076;13.748;2023-04-25T16:11:10;12.90;47.60
1958;DHT22;979;51.076;13.748;2023-04-25T16:14:31;13.20;47.60
1958;DHT22;979;51.076;13.748;2023-04-25T16:17:17;13.00;47.60
1958;DHT22;979;51.076;13.748;2023-04-25T16:25:15;13.00;47.80
1958;DHT22;979;51.076;13.748;2023-04-25T16:34:44;13.50;47.70
1958;DHT22;979;51.076;13.748;2023-04-25T16:37:32;13.90;48.60
1958;DHT22;979;51.076;13.748;2023-04-25T16:40:08;14.10;47.40
1958;DHT22;979;51.076;13.748;2023-04-25T16:43:02;14.30;46.90
1958;DHT22;979;51.076;13.748;2023-04-25T16:45:41;14.90;47.10
1958;DHT22;979;51.076;13.748;2023-04-25T16:48:43;15.40;47.00
1958;DHT22;979;51.076;13.748;2023-04-25T16:51:20;15.80;44.50
1958;DHT22;979;51.076;13.748;2023-04-25T16:53:56;15.60;43.50
1958;DHT22;979;51.076;13.748;2023-04-25T16:56:41;15.20;43.10
1958;DHT22;979;51.076;13.748;2023-04-25T16:59:12;14.90;42.80
1958;DHT22;979;51.076;13.748;2023-04-25T17:01:44;14.50;42.70
1958;DHT22;979;51.076;13.748;2023-04-25T17:04:14;14.20;42.40
1958;DHT22;979;51.076;13.748;2023-04-25T17:06:44;14.00;42.90
1958;DHT22;979;51.076;13.748;2023-04-25T17:09:32;13.70;43.20
1958;DHT22;979;51.076;13.748;2023-04-25T17:12:36;13.60;43.20
1958;DHT22;979;51.076;13.748;2023-04-25T17:15:09;13.30;43.60
1958;DHT22;979;51.076;13.748;2023-04-25T17:17:40;13.30;43.70
1958;DHT22;979;51.076;13.748;2023-04-25T17:20:11;13.30;44.10
1958;DHT22;979;51.076;13.748;2023-04-25T17:22:42;13.20;44.30
1958;DHT22;979;51.076;13.748;2023-04-25T17:25:39;13.40;44.70
1958;DHT22;979;51.076;13.748;2023-04-25T17:31:15;14.00;44.60
1958;DHT22;979;51.076;13.748;2023-04-25T17:40:20;13.70;44.00
1958;DHT22;979;51.076;13.748;2023-04-25T17:43:28;13.40;43.50
1958;DHT22;979;51.076;13.748;2023-04-25T17:46:42;12.90;43.50
1958;DHT22;979;51.076;13.748;2023-04-25T17:50:12;12.80;44.00
1958;DHT22;979;51.076;13.748;2023-04-25T17:53:53;12.60;44.10
1958;DHT22;979;51.076;13.748;2023-04-25T17:56:35;12.30;44.30
1958;DHT22;979;51.076;13.748;2023-04-25T18:00:21;12.20;44.60
1958;DHT22;979;51.076;13.748;2023-04-25T18:03:56;12.00;44.80
1958;DHT22;979;51.076;13.748;2023-04-25T18:06:55;11.90;44.90
1958;DHT22;979;51.076;13.748;2023-04-25T18:09:37;11.70;44.90
1958;DHT22;979;51.076;13.748;2023-04-25T18:12:44;11.50;44.80
1958;DHT22;979;51.076;13.748;2023-04-25T18:15:46;11.60;44.80
1958;DHT22;979;51.076;13.748;2023-04-25T18:19:35;11.50;45.20
1958;DHT22;979;51.076;13.748;2023-04-25T18:26:20;11.40;45.30
1958;DHT22;979;51.076;13.748;2023-04-25T18:32:15;11.30;45.40
1958;DHT22;979;51.076;13.748;2023-04-25T18:39:17;11.50;45.80
1958;DHT22;979;51.076;13.748;2023-04-25T18:41:55;11.40;46.10
1958;DHT22;979;51.076;13.748;2023-04-25T18:44:36;11.40;46.20
1958;DHT22;979;51.076;13.748;2023-04-25T18:47:30;11.30;46.40
1958;DHT22;979;51.076;13.748;2023-04-25T18:50:22;11.30;46.30
1958;DHT22;979;51.076;13.748;2023-04-25T18:56:23;11.00;46.80
1958;DHT22;979;51.076;13.748;2023-04-25T18:59:06;10.90;46.80
1958;DHT22;979;51.076;13.748;2023-04-25T19:02:02;10.60;46.70
1958;DHT22;979;51.076;13.748;2023-04-25T19:04:41;10.70;47.00
1958;DHT22;979;51.076;13.748;2023-04-25T19:07:13;10.60;47.30
1958;DHT22;979;51.076;13.748;2023-04-25T19:10:17;10.40;47.40
1958;DHT22;979;51.076;13.748;2023-04-25T19:13:07;10.30;47.40
1958;DHT22;979;51.076;13.748;2023-04-25T19:16:05;10.40;47.90
1958;DHT22;979;51.076;13.748;2023-04-25T19:19:04;10.30;47.90